If you wish to contribute or participate in the discussions about articles you are invited to join SKYbrary as a registered user

 Actions

TAG London Farnborough Airport

From SKYbrary Wiki

EGLF
Airport
ICAO: EGLF – IATA: FAB
Summary
Name TAG London Farnborough Airport
Region Europe
Territory United Kingdom GB.gif
Location Farnborough, England
Serving Farnborough
Elevation 72.542 m
238 ft
238 ft72.542 m
Type medium airport
Coordinates 51° 16' 43.00" N, 0° 46' 18.00" W
Runways
Designator Length Width Surface ROPS
6/24 2440 m8,005.249 ft
45 m147.638 ft
ASP no/no


METAR
Observation EGLF 081220Z AUTO 24020KT 9999 FEW042/// 10/04 Q1001
Station Farnborough
Date/Time 08 December 2019 12:20:00
Wind direction 240°
Wind speed 20 kts
Lowest cloud amount few clouds
Temperature 10°C
Dew point 4°C
Humidity 66%
QNH 1001 hPa
Weather condition n/a

Farnborough Airport

ICAO: EGLF IATA: FAB

Description

Business Airport to the south west of London which serves as a corporate and private jet hub. Farnborough also hosts the Farnborough International Air Show every 2 years.

Climatology

Temperate Marine climate/Oceanic climate (Köppen climate classification Cfb). Moderately cool summer and comparatively warm winter with a temperature range of only 14°C57.2 °F
287.15 K
516.87 °R
. Prevailing south-westerly winds from the Atlantic Ocean.

Maps

Terrain

Loading map...

Airport Layout

Loading map...


Accidents & Serious Incidents at or in vicinity of EGLF

None on SKYbrary